Terminal Aerodrome Forecast
Issued by NWS Binghamton, NY

Home | Current Version | Previous Version | Text Only | Print | Product List | Glossary On
Versions: 1 2 3 4 5 6 7 8 9 10 11 12 13 14 15 16 17
000
FTUS41 KBGM 240540
TAFSYR
TAF
KSYR 240540Z 2406/2506 26004KT P6SM SCT070
     FM241300 27006KT P6SM BKN040
     FM241800 30008KT P6SM BKN050
     FM250000 VRB03KT P6SM BKN080=

USA.gov is the U.S. government's official web portal to all federal, state and local government web resources and services.